createdAt,value
2023-04-30T00:01:33.088Z,99778.78
2023-04-30T00:07:35.547Z,99826.25
2023-04-30T00:13:38.020Z,99840.78
2023-04-30T00:19:40.502Z,99808.47
2023-04-30T00:25:42.965Z,99776.47
2023-04-30T00:31:50.342Z,99662.38
2023-04-30T00:37:52.924Z,99828.59
2023-04-30T00:43:55.416Z,99822.50
2023-04-30T00:49:57.881Z,99836.06
2023-04-30T00:56:00.369Z,99809.19
2023-04-30T01:02:03.918Z,99827.41
2023-04-30T01:08:06.344Z,99817.53
2023-04-30T01:14:13.805Z,99821.88
2023-04-30T01:20:16.287Z,99818.47
2023-04-30T01:26:39.887Z,99817.78
2023-04-30T01:32:42.379Z,99788.31
2023-04-30T01:39:09.857Z,99802.56
2023-04-30T01:45:11.635Z,99796.94
2023-04-30T01:51:33.932Z,99794.81
2023-04-30T01:57:56.447Z,99730.84
2023-04-30T02:04:00.073Z,99752.69
2023-04-30T02:10:02.421Z,99778.84
2023-04-30T02:16:04.928Z,99741.03
2023-04-30T02:22:07.409Z,99736.78
2023-04-30T02:28:12.907Z,99700.53
2023-04-30T02:34:14.724Z,99782.59
2023-04-30T02:40:16.822Z,99782.50
2023-04-30T02:46:20.390Z,99763.44
2023-04-30T02:52:22.832Z,99722.59
2023-04-30T02:58:25.274Z,99729.78
2023-04-30T03:04:27.745Z,99786.19
2023-04-30T03:10:32.276Z,99656.75
2023-04-30T03:16:34.801Z,99788.44
2023-04-30T03:22:37.229Z,99795.53
2023-04-30T03:28:39.694Z,99790.19
2023-04-30T03:34:42.167Z,99694.97
2023-04-30T03:40:44.697Z,99775.81
2023-04-30T03:46:47.107Z,99749.06
2023-04-30T03:52:52.608Z,99779.03
2023-04-30T03:58:56.089Z,99816.34
2023-04-30T04:04:59.941Z,99793.34
2023-04-30T04:11:02.199Z,99764.56
2023-04-30T04:17:07.589Z,99805.69
2023-04-30T04:23:10.068Z,99822.47
2023-04-30T04:29:12.379Z,99798.31
2023-04-30T04:35:19.453Z,99800.97
2023-04-30T04:41:23.502Z,99801.75
2023-04-30T04:47:25.982Z,99826.53
2023-04-30T04:53:28.454Z,99822.59
2023-04-30T04:59:33.950Z,99821.34
2023-04-30T05:05:36.418Z,99807.91
2023-04-30T05:11:38.770Z,99811.16
2023-04-30T05:17:46.438Z,99710.72
2023-04-30T05:23:49.813Z,99835.25
2023-04-30T05:29:52.607Z,99807.59
2023-04-30T05:35:57.869Z,99810.56
2023-04-30T05:42:00.360Z,99791.66
2023-04-30T05:48:03.087Z,99829.22
2023-04-30T05:54:08.065Z,99829.53
2023-04-30T06:00:10.849Z,99820.88
2023-04-30T06:06:14.331Z,99664.91
2023-04-30T06:12:20.732Z,99750.09
2023-04-30T06:18:23.250Z,99795.22
2023-04-30T06:24:28.682Z,99815.59
2023-04-30T06:30:32.333Z,99822.84
2023-04-30T06:36:34.119Z,99825.47
2023-04-30T06:42:36.148Z,99822.84
2023-04-30T06:48:38.003Z,99811.69
2023-04-30T06:54:43.077Z,99808.28
2023-04-30T07:00:45.540Z,99762.09
2023-04-30T07:06:48.988Z,99801.44
2023-04-30T07:12:53.953Z,99748.75
2023-04-30T07:18:56.972Z,99791.81
2023-04-30T07:24:59.391Z,99753.31
2023-04-30T07:31:03.905Z,99788.56
2023-04-30T07:37:08.392Z,99659.00
2023-04-30T07:43:22.040Z,99772.88
2023-04-30T07:49:50.491Z,99796.78
2023-04-30T07:55:52.950Z,99786.09
2023-04-30T08:02:03.375Z,99718.34
2023-04-30T08:08:05.988Z,99785.66
2023-04-30T08:14:08.370Z,99747.47
2023-04-30T08:20:11.881Z,99784.00
2023-04-30T08:26:14.361Z,99743.22
2023-04-30T08:32:16.182Z,99734.00
2023-04-30T08:38:19.295Z,99710.97
2023-04-30T08:44:27.789Z,99736.41
2023-04-30T08:50:30.284Z,99769.56
2023-04-30T08:56:35.801Z,99735.75
2023-04-30T09:02:45.470Z,99763.53
2023-04-30T09:08:49.814Z,99721.78
2023-04-30T09:15:04.340Z,99757.56
2023-04-30T09:21:08.736Z,99738.41
2023-04-30T09:27:23.272Z,99748.34
2023-04-30T09:33:25.724Z,99728.28
2023-04-30T09:39:28.198Z,99702.09
2023-04-30T09:45:56.034Z,99720.78
2023-04-30T09:52:02.279Z,99717.31
2023-04-30T09:58:09.775Z,99717.59
2023-04-30T10:04:13.419Z,99692.22
2023-04-30T10:10:15.811Z,99703.13
2023-04-30T10:16:52.362Z,99705.88
2023-04-30T10:22:54.823Z,99701.09
2023-04-30T10:28:59.404Z,99697.94
2023-04-30T10:35:13.016Z,99687.16
2023-04-30T10:41:18.346Z,99645.25
2023-04-30T10:47:21.867Z,99675.22
2023-04-30T10:53:29.354Z,99680.50
2023-04-30T10:59:31.857Z,99665.63
2023-04-30T11:05:38.333Z,99601.94
2023-04-30T11:11:40.786Z,99666.22
2023-04-30T11:17:46.351Z,99627.00
2023-04-30T11:23:50.713Z,99664.19
2023-04-30T11:29:54.381Z,99586.91
2023-04-30T11:36:02.752Z,99611.28
2023-04-30T11:42:05.203Z,99645.69
2023-04-30T11:48:07.758Z,99634.75
2023-04-30T11:54:13.229Z,99593.84
2023-04-30T12:00:20.767Z,99642.84
2023-04-30T12:06:28.379Z,99519.72
2023-04-30T12:12:31.737Z,99574.84
2023-04-30T12:18:36.196Z,99528.06
2023-04-30T12:24:40.722Z,99624.53
2023-04-30T12:30:44.163Z,99594.56
2023-04-30T12:36:46.611Z,99591.47
2023-04-30T12:42:49.100Z,99625.16
2023-04-30T12:48:51.636Z,99608.63
2023-04-30T12:54:56.306Z,99604.25
2023-04-30T13:01:01.539Z,99488.41
2023-04-30T13:07:07.001Z,99532.53
2023-04-30T13:13:09.477Z,99568.47
2023-04-30T13:19:13.013Z,99584.16
2023-04-30T13:25:15.439Z,99574.44
2023-04-30T13:31:18.138Z,99578.31
2023-04-30T13:37:21.349Z,99574.75
2023-04-30T13:43:26.274Z,99582.19
2023-04-30T13:49:28.398Z,99585.56
2023-04-30T13:55:30.876Z,99579.53
2023-04-30T14:01:34.462Z,99580.59
2023-04-30T14:07:37.863Z,99477.44
2023-04-30T14:13:40.325Z,99565.44
2023-04-30T14:19:42.817Z,99519.84
2023-04-30T14:25:45.314Z,99518.31
2023-04-30T14:31:50.829Z,99577.31
2023-04-30T14:37:53.289Z,99571.16
2023-04-30T14:43:58.123Z,99585.00
2023-04-30T14:50:05.545Z,99599.59
2023-04-30T14:56:09.763Z,99590.78
2023-04-30T15:02:22.350Z,99524.41
2023-04-30T15:08:34.488Z,99554.28
2023-04-30T15:14:37.300Z,99493.50
2023-04-30T15:20:42.778Z,99520.28
2023-04-30T15:26:45.303Z,99506.41
2023-04-30T15:32:50.801Z,99480.72
2023-04-30T15:38:53.240Z,99581.09
2023-04-30T15:44:58.744Z,99527.94
2023-04-30T15:51:01.199Z,99582.66
2023-04-30T15:57:10.935Z,99546.88
2023-04-30T16:03:21.336Z,99566.09
2023-04-30T16:09:28.539Z,99570.47
2023-04-30T16:15:33.562Z,99574.06
2023-04-30T16:21:39.052Z,99611.88
2023-04-30T16:27:42.109Z,99616.59
2023-04-30T16:33:44.606Z,99611.50
2023-04-30T16:39:49.176Z,99614.38
2023-04-30T16:45:55.706Z,99614.31
2023-04-30T16:51:58.084Z,99620.72
2023-04-30T16:58:07.962Z,99625.78
2023-04-30T17:04:14.052Z,99589.50
2023-04-30T17:10:21.486Z,99589.91
2023-04-30T17:16:23.997Z,99615.13
2023-04-30T17:22:29.456Z,99627.78
2023-04-30T17:28:33.998Z,99644.84
2023-04-30T17:34:39.432Z,99657.19
2023-04-30T17:40:41.911Z,99661.47
2023-04-30T17:46:45.411Z,99615.88
2023-04-30T17:52:47.836Z,99544.84
2023-04-30T17:58:50.323Z,99676.47
2023-04-30T18:04:52.799Z,99681.47
2023-04-30T18:10:56.264Z,99661.72
2023-04-30T18:16:58.790Z,99691.97
2023-04-30T18:23:01.260Z,99705.25
2023-04-30T18:29:03.731Z,99612.25
2023-04-30T18:35:07.209Z,99714.34
2023-04-30T18:41:09.677Z,99693.59
2023-04-30T18:47:12.157Z,99715.81
2023-04-30T18:53:14.582Z,99585.28
2023-04-30T18:59:18.071Z,99717.72
2023-04-30T19:05:21.605Z,99722.09
2023-04-30T19:11:24.078Z,99708.72
2023-04-30T19:17:26.585Z,99752.66
2023-04-30T19:23:33.069Z,99732.16
2023-04-30T19:29:37.369Z,99732.75
2023-04-30T19:35:39.989Z,99699.09
2023-04-30T19:41:42.463Z,99735.88
2023-04-30T19:47:44.953Z,99751.03
2023-04-30T19:53:48.417Z,99723.44
2023-04-30T19:59:50.881Z,99767.88
2023-04-30T20:05:53.371Z,99668.50
2023-04-30T20:11:56.863Z,99782.16
2023-04-30T20:18:00.507Z,99788.50
2023-04-30T20:24:04.817Z,99778.03
2023-04-30T20:30:11.320Z,99687.53
2023-04-30T20:36:13.755Z,99801.28
2023-04-30T20:42:16.262Z,99703.66
2023-04-30T20:48:18.813Z,99821.78
2023-04-30T20:54:23.331Z,99828.81
2023-04-30T21:00:25.686Z,99846.97
2023-04-30T21:06:31.193Z,99844.66
2023-04-30T21:12:33.662Z,99860.09
2023-04-30T21:18:36.068Z,99856.44
2023-04-30T21:24:41.569Z,99885.19
2023-04-30T21:30:44.115Z,99884.69
2023-04-30T21:36:47.546Z,99861.22
2023-04-30T21:42:50.997Z,99652.88
2023-04-30T21:48:53.473Z,99897.50
2023-04-30T21:54:55.982Z,99909.69
2023-04-30T22:01:01.432Z,99906.72
2023-04-30T22:07:03.921Z,99902.84
2023-04-30T22:13:06.362Z,99898.72
2023-04-30T22:19:18.191Z,99797.44
2023-04-30T22:25:21.372Z,99942.47
2023-04-30T22:31:23.964Z,99891.63
2023-04-30T22:37:27.346Z,99936.44
2023-04-30T22:43:31.868Z,99941.88
2023-04-30T22:49:35.365Z,99896.41
2023-04-30T22:55:37.810Z,99950.31
2023-04-30T23:01:42.348Z,99939.25
2023-04-30T23:07:49.840Z,99817.53
2023-04-30T23:13:52.283Z,99963.97
2023-04-30T23:19:57.081Z,99907.72
2023-04-30T23:26:01.307Z,99881.78
2023-04-30T23:32:03.872Z,99888.06
2023-04-30T23:38:07.262Z,99903.31
2023-04-30T23:44:09.731Z,99997.53
2023-04-30T23:50:13.234Z,99954.22
2023-04-30T23:56:15.691Z,100002.75
